createdAt,value
2022-09-06T00:01:19.016Z,41.94
2022-09-06T00:03:51.131Z,41.61
2022-09-06T00:06:21.513Z,41.71
2022-09-06T00:08:51.133Z,41.65
2022-09-06T00:11:20.667Z,41.40
2022-09-06T00:13:50.442Z,41.56
2022-09-06T00:16:21.055Z,42.24
2022-09-06T00:18:55.082Z,42.68
2022-09-06T00:21:26.096Z,42.04
2022-09-06T00:23:55.678Z,41.91
2022-09-06T00:26:25.404Z,42.05
2022-09-06T00:28:54.828Z,42.12
2022-09-06T00:31:25.521Z,42.41
2022-09-06T00:33:57.600Z,42.60
2022-09-06T00:36:27.045Z,42.29
2022-09-06T00:38:56.652Z,42.88
2022-09-06T00:41:26.107Z,43.31
2022-09-06T00:43:55.534Z,43.24
2022-09-06T00:46:27.074Z,43.39
2022-09-06T00:49:00.268Z,42.98
2022-09-06T00:51:30.093Z,43.41
2022-09-06T00:53:59.560Z,43.62
2022-09-06T00:56:28.993Z,44.27
2022-09-06T00:58:58.430Z,44.74
2022-09-06T01:01:28.030Z,45.15
2022-09-06T01:04:00.140Z,44.60
2022-09-06T01:06:32.965Z,40.59
2022-09-06T01:09:06.280Z,40.25
2022-09-06T01:11:44.208Z,39.66
2022-09-06T01:14:18.138Z,41.27
2022-09-06T01:16:51.923Z,40.79
2022-09-06T01:19:59.688Z,43.59
2022-09-06T01:22:42.038Z,43.04
2022-09-06T01:25:28.308Z,43.04
2022-09-06T01:28:41.966Z,43.52
2022-09-06T01:31:20.727Z,44.87
2022-09-06T01:33:54.380Z,45.53
2022-09-06T01:36:25.046Z,46.31
2022-09-06T01:38:54.481Z,47.57
2022-09-06T01:41:23.918Z,48.01
2022-09-06T01:43:53.485Z,49.30
2022-09-06T01:46:28.580Z,50.77
2022-09-06T01:49:06.172Z,53.45
2022-09-06T01:51:39.777Z,56.54
2022-09-06T01:54:21.767Z,59.73
2022-09-06T01:56:53.532Z,62.62
2022-09-06T01:59:39.339Z,63.67
2022-09-06T02:02:12.625Z,65.72
2022-09-06T02:04:44.811Z,66.80
2022-09-06T02:07:17.905Z,68.23
2022-09-06T02:09:47.818Z,69.39
2022-09-06T02:12:17.256Z,68.00
2022-09-06T02:14:48.956Z,68.12
2022-09-06T02:17:23.313Z,68.85
2022-09-06T02:19:53.875Z,72.45
2022-09-06T02:22:24.953Z,74.08
2022-09-06T02:24:55.251Z,71.31
2022-09-06T02:27:24.676Z,70.96
2022-09-06T02:29:54.129Z,71.43
2022-09-06T02:32:26.758Z,72.28
2022-09-06T02:34:58.075Z,73.37
2022-09-06T02:37:28.473Z,73.53
2022-09-06T02:39:58.019Z,75.47
2022-09-06T02:42:27.965Z,76.28
2022-09-06T02:44:57.453Z,74.71
2022-09-06T02:47:29.452Z,74.06
2022-09-06T02:49:58.888Z,74.05
2022-09-06T02:52:28.323Z,73.72
2022-09-06T02:54:57.897Z,70.63
2022-09-06T02:57:27.461Z,70.09
2022-09-06T02:59:56.888Z,71.63
2022-09-06T03:02:28.900Z,71.54
2022-09-06T03:04:58.340Z,72.91
2022-09-06T03:07:27.822Z,75.30
2022-09-06T03:09:58.371Z,81.48
2022-09-06T03:12:27.813Z,82.89
2022-09-06T03:14:57.400Z,80.01
2022-09-06T03:17:29.422Z,79.63
2022-09-06T03:19:58.876Z,78.39
2022-09-06T03:22:28.305Z,77.38
2022-09-06T03:24:57.745Z,76.54
2022-09-06T03:27:27.301Z,75.63
2022-09-06T03:29:56.779Z,75.42
2022-09-06T03:32:29.229Z,75.81
2022-09-06T03:34:59.403Z,75.03
2022-09-06T03:37:28.878Z,74.37
2022-09-06T03:39:58.348Z,74.46
2022-09-06T03:42:28.171Z,73.99
2022-09-06T03:44:57.619Z,72.94
2022-09-06T03:47:29.638Z,72.88
2022-09-06T03:49:59.068Z,74.68
2022-09-06T03:52:28.500Z,74.09
2022-09-06T03:54:57.920Z,75.21
2022-09-06T03:57:27.521Z,75.62
2022-09-06T03:59:56.943Z,75.17
2022-09-06T04:02:29.051Z,74.76
2022-09-06T04:04:58.596Z,73.68
2022-09-06T04:07:28.063Z,74.04
2022-09-06T04:09:57.487Z,74.38
2022-09-06T04:12:26.965Z,73.88
2022-09-06T04:14:56.390Z,73.48
2022-09-06T04:17:25.842Z,72.66
2022-09-06T04:19:57.844Z,73.01
2022-09-06T04:22:27.405Z,72.79
2022-09-06T04:24:56.834Z,72.93
2022-09-06T04:27:26.285Z,72.37
2022-09-06T04:29:56.620Z,71.94
2022-09-06T04:32:26.139Z,71.81
2022-09-06T04:34:58.229Z,71.20
2022-09-06T04:37:27.674Z,71.84
2022-09-06T04:39:57.143Z,71.37
2022-09-06T04:42:26.666Z,70.57
2022-09-06T04:44:56.097Z,71.03
2022-09-06T04:47:25.540Z,71.57
2022-09-06T04:49:55.042Z,71.54
2022-09-06T04:52:30.113Z,70.94
2022-09-06T04:54:59.849Z,70.04
2022-09-06T04:57:29.289Z,70.11
2022-09-06T04:59:58.735Z,70.25
2022-09-06T05:02:28.226Z,70.76
2022-09-06T05:04:57.734Z,73.03
2022-09-06T05:07:29.761Z,72.46
2022-09-06T05:09:59.422Z,71.25
2022-09-06T05:12:28.863Z,71.08
2022-09-06T05:14:58.317Z,71.50
2022-09-06T05:17:27.965Z,71.11
2022-09-06T05:19:57.397Z,71.00
2022-09-06T05:22:29.450Z,71.95
2022-09-06T05:24:58.873Z,70.71
2022-09-06T05:27:28.485Z,70.75
2022-09-06T05:29:57.897Z,70.23
2022-09-06T05:32:27.336Z,69.57
2022-09-06T05:34:56.775Z,69.91
2022-09-06T05:37:29.038Z,69.65
2022-09-06T05:40:00.284Z,69.43
2022-09-06T05:42:29.850Z,69.37
2022-09-06T05:44:59.270Z,69.33
2022-09-06T05:47:29.340Z,68.38
2022-09-06T05:49:59.919Z,70.11
2022-09-06T05:52:33.100Z,69.95
2022-09-06T05:55:02.527Z,70.39
2022-09-06T05:57:31.988Z,68.67
2022-09-06T06:00:01.425Z,67.49
2022-09-06T06:02:30.935Z,66.60
2022-09-06T06:05:00.400Z,66.61
2022-09-06T06:07:32.429Z,66.35
2022-09-06T06:10:01.846Z,66.29
2022-09-06T06:12:31.289Z,68.98
2022-09-06T06:15:00.709Z,68.83
2022-09-06T06:17:30.415Z,67.42
2022-09-06T06:19:59.845Z,66.55
2022-09-06T06:22:31.881Z,66.09
2022-09-06T06:25:01.307Z,66.24
2022-09-06T06:27:30.904Z,65.21
2022-09-06T06:30:00.324Z,65.57
2022-09-06T06:32:30.124Z,63.85
2022-09-06T06:34:59.545Z,64.42
2022-09-06T06:37:29.009Z,65.36
2022-09-06T06:40:01.075Z,64.78
2022-09-06T06:42:30.558Z,64.83
2022-09-06T06:45:00.329Z,64.42
2022-09-06T06:47:29.789Z,62.76
2022-09-06T06:49:59.220Z,62.22
2022-09-06T06:52:28.703Z,61.60
2022-09-06T06:55:00.726Z,60.33
2022-09-06T06:57:30.169Z,59.94
2022-09-06T06:59:59.584Z,60.48
2022-09-06T07:02:29.060Z,60.59
2022-09-06T07:04:58.754Z,59.31
2022-09-06T07:12:50.962Z,61.18
2022-09-06T07:15:20.427Z,60.34
2022-09-06T07:17:49.894Z,60.50
2022-09-06T07:20:20.426Z,59.14
2022-09-06T07:22:49.876Z,59.62
2022-09-06T07:25:22.088Z,58.37
2022-09-06T07:27:51.569Z,57.74
2022-09-06T07:30:21.499Z,55.90
2022-09-06T07:32:51.060Z,56.67
2022-09-06T07:35:20.576Z,55.08
2022-09-06T07:37:57.016Z,54.30
2022-09-06T07:40:29.520Z,54.66
2022-09-06T07:42:59.339Z,53.64
2022-09-06T07:45:28.777Z,53.45
2022-09-06T07:47:59.353Z,53.93
2022-09-06T07:53:29.040Z,52.93
2022-09-06T07:56:02.956Z,52.92
2022-09-06T07:58:32.702Z,52.01
2022-09-06T08:01:21.822Z,53.62
2022-09-06T08:03:51.506Z,52.74
2022-09-06T08:06:21.000Z,53.12
2022-09-06T08:08:57.943Z,50.47
2022-09-06T08:11:31.744Z,50.61
2022-09-06T08:14:02.068Z,51.49
2022-09-06T08:16:32.354Z,49.18
2022-09-06T08:19:02.794Z,49.88
2022-09-06T08:21:33.241Z,48.02
2022-09-06T08:24:03.677Z,48.97
2022-09-06T08:26:36.978Z,49.52
2022-09-06T08:29:08.658Z,47.86
2022-09-06T08:31:38.923Z,47.16
2022-09-06T08:34:08.432Z,45.77
2022-09-06T08:36:37.964Z,46.20
2022-09-06T08:39:09.160Z,47.34
2022-09-06T08:41:47.979Z,45.48
2022-09-06T08:47:09.814Z,44.87
2022-09-06T08:49:40.296Z,43.87
2022-09-06T08:53:06.258Z,44.77
2022-09-06T08:55:38.759Z,43.39
2022-09-06T08:58:24.660Z,42.70
2022-09-06T09:00:58.672Z,42.36
2022-09-06T09:03:29.130Z,42.18
2022-09-06T09:05:59.983Z,42.17
2022-09-06T09:08:29.714Z,43.00
2022-09-06T09:11:01.603Z,39.87
2022-09-06T09:13:36.690Z,41.30
2022-09-06T09:16:06.200Z,44.37
2022-09-06T09:18:36.798Z,44.60
2022-09-06T09:21:06.542Z,45.28
2022-09-06T09:23:36.008Z,46.51
2022-09-06T09:26:08.197Z,44.96
2022-09-06T09:28:40.218Z,43.72
2022-09-06T09:31:10.230Z,42.70
2022-09-06T09:33:39.845Z,40.76
2022-09-06T09:36:10.577Z,40.51
2022-09-06T09:38:43.682Z,40.64
2022-09-06T09:41:13.267Z,40.71
2022-09-06T09:43:45.397Z,42.86
2022-09-06T09:46:17.889Z,43.32
2022-09-06T09:48:49.766Z,40.48
2022-09-06T09:51:26.632Z,39.67
2022-09-06T09:53:57.651Z,40.16
2022-09-06T09:56:36.892Z,41.98
2022-09-06T09:59:10.616Z,41.98
2022-09-06T10:01:40.112Z,41.99
2022-09-06T10:07:13.364Z,39.07
2022-09-06T10:09:43.574Z,39.38
2022-09-06T10:12:18.393Z,39.13
2022-09-06T10:14:51.209Z,38.59
2022-09-06T10:17:21.797Z,38.70
2022-09-06T10:19:51.266Z,38.33
2022-09-06T10:22:29.045Z,38.80
2022-09-06T10:25:37.916Z,40.75
2022-09-06T10:28:34.651Z,41.42
2022-09-06T10:31:47.707Z,41.72
2022-09-06T10:34:52.502Z,41.54
2022-09-06T10:37:44.326Z,42.55
2022-09-06T10:40:14.856Z,41.86
2022-09-06T10:42:46.243Z,41.37
2022-09-06T10:45:23.267Z,40.87
2022-09-06T10:48:02.637Z,41.70
2022-09-06T10:50:40.611Z,41.28
2022-09-06T10:53:13.585Z,39.48
2022-09-06T10:55:47.366Z,39.70
2022-09-06T10:58:17.923Z,38.01
2022-09-06T11:00:49.227Z,37.16
2022-09-06T11:06:16.446Z,36.53
2022-09-06T11:08:51.289Z,36.89
2022-09-06T11:11:24.291Z,36.94
2022-09-06T11:13:53.714Z,36.83
2022-09-06T11:16:25.004Z,36.18
2022-09-06T11:18:58.843Z,36.03
2022-09-06T11:21:43.771Z,37.35
2022-09-06T11:24:14.838Z,37.50
2022-09-06T11:26:47.472Z,37.83
2022-09-06T11:29:21.301Z,36.27
2022-09-06T11:34:56.925Z,35.88
2022-09-06T11:37:28.065Z,35.88
2022-09-06T11:43:17.346Z,35.94
2022-09-06T11:45:51.600Z,34.77
2022-09-06T11:48:46.205Z,36.14
2022-09-06T11:51:34.275Z,36.98
2022-09-06T11:54:09.651Z,38.87
2022-09-06T11:56:42.240Z,39.25
2022-09-06T11:59:15.785Z,38.03
2022-09-06T12:01:47.643Z,38.72
2022-09-06T12:04:17.133Z,36.14
2022-09-06T12:07:11.168Z,35.59
2022-09-06T12:09:41.024Z,35.05
2022-09-06T12:12:14.785Z,36.79
2022-09-06T12:14:47.036Z,34.96
2022-09-06T12:17:25.443Z,35.00
2022-09-06T12:19:55.447Z,34.54
2022-09-06T12:23:03.735Z,36.08
2022-09-06T12:25:59.959Z,37.51
2022-09-06T12:28:32.449Z,35.30
2022-09-06T12:31:02.042Z,34.51
2022-09-06T12:33:33.789Z,34.17
2022-09-06T12:36:15.865Z,32.93
2022-09-06T12:38:57.365Z,33.45
2022-09-06T12:41:31.686Z,34.16
2022-09-06T12:44:01.533Z,33.25
2022-09-06T12:46:31.312Z,33.02
2022-09-06T12:49:05.272Z,30.67
2022-09-06T12:51:34.916Z,30.03
2022-09-06T12:54:07.006Z,30.02
2022-09-06T12:56:39.061Z,30.00
2022-09-06T12:59:19.472Z,30.13
2022-09-06T13:02:00.586Z,29.89
2022-09-06T13:04:35.022Z,29.71
2022-09-06T13:07:04.512Z,30.93
2022-09-06T13:09:33.949Z,32.30
2022-09-06T13:12:09.243Z,32.82
2022-09-06T13:14:38.867Z,32.62
2022-09-06T13:17:08.469Z,31.87
2022-09-06T13:19:38.529Z,30.68
2022-09-06T13:22:11.101Z,31.17
2022-09-06T13:24:49.109Z,31.12
2022-09-06T13:27:37.166Z,30.94
2022-09-06T13:30:07.631Z,32.28
2022-09-06T13:32:36.938Z,30.14
2022-09-06T13:35:07.083Z,29.99
2022-09-06T13:37:39.544Z,30.36
2022-09-06T13:41:00.013Z,29.96
2022-09-06T13:43:33.441Z,29.17
2022-09-06T13:46:07.793Z,28.59
2022-09-06T13:48:39.291Z,29.87
2022-09-06T13:51:09.772Z,31.53
2022-09-06T13:53:39.239Z,31.27
2022-09-06T13:56:09.203Z,31.46
2022-09-06T13:58:41.245Z,30.33
2022-09-06T14:01:10.777Z,30.54
2022-09-06T14:03:42.456Z,30.67
2022-09-06T14:06:12.599Z,30.08
2022-09-06T14:09:05.902Z,29.19
2022-09-06T14:11:32.551Z,28.35
2022-09-06T14:14:04.577Z,29.15
2022-09-06T14:16:34.486Z,28.36
2022-09-06T14:19:03.974Z,29.17
2022-09-06T14:21:33.453Z,28.68
2022-09-06T14:24:04.517Z,27.80
2022-09-06T14:26:34.803Z,28.19
2022-09-06T14:29:08.174Z,27.79
2022-09-06T14:31:37.717Z,28.12
2022-09-06T14:34:07.223Z,29.40
2022-09-06T14:36:36.859Z,28.71
2022-09-06T14:39:06.475Z,27.98
2022-09-06T14:41:35.923Z,28.02
2022-09-06T14:44:09.071Z,27.74
2022-09-06T14:46:38.662Z,29.27
2022-09-06T14:49:10.182Z,30.08
2022-09-06T14:51:40.707Z,30.34
2022-09-06T14:54:11.036Z,30.36
2022-09-06T14:56:40.786Z,30.36
2022-09-06T14:59:12.823Z,29.94
2022-09-06T15:01:42.628Z,29.53
2022-09-06T15:04:12.821Z,29.02
2022-09-06T15:06:47.139Z,29.05
2022-09-06T15:09:16.902Z,29.49
2022-09-06T15:11:47.670Z,30.27
2022-09-06T15:14:20.506Z,30.35
2022-09-06T15:16:54.894Z,29.25
2022-09-06T15:19:25.504Z,29.91
2022-09-06T15:21:55.275Z,29.57
2022-09-06T15:24:24.730Z,29.58
2022-09-06T15:26:54.194Z,30.17
2022-09-06T15:29:27.121Z,30.49
2022-09-06T15:31:57.257Z,30.96
2022-09-06T15:34:27.397Z,31.09
2022-09-06T15:36:57.112Z,32.08
2022-09-06T15:39:26.577Z,33.75
2022-09-06T15:41:57.172Z,34.28
2022-09-06T15:44:29.119Z,34.22
2022-09-06T15:46:59.546Z,33.80
2022-09-06T15:49:31.253Z,33.22
2022-09-06T15:52:01.137Z,33.36
2022-09-06T15:54:43.177Z,33.56
2022-09-06T15:57:12.709Z,33.55
2022-09-06T15:59:44.795Z,33.14
2022-09-06T16:02:14.592Z,32.52
2022-09-06T16:04:44.163Z,32.96
2022-09-06T16:07:13.721Z,32.88
2022-09-06T16:09:43.406Z,33.67
2022-09-06T16:12:12.872Z,34.15
2022-09-06T16:14:44.881Z,34.76
2022-09-06T16:17:14.541Z,35.02
2022-09-06T16:19:45.603Z,35.41
2022-09-06T16:22:15.127Z,35.53
2022-09-06T16:24:44.920Z,35.70
2022-09-06T16:27:14.387Z,36.68
2022-09-06T16:29:46.553Z,36.55
2022-09-06T16:32:17.345Z,37.71
2022-09-06T16:34:46.838Z,39.94
2022-09-06T16:37:16.310Z,43.71
2022-09-06T16:39:45.820Z,46.67
2022-09-06T16:42:15.303Z,49.48
2022-09-06T16:44:47.333Z,57.88
2022-09-06T16:47:16.936Z,57.62
2022-09-06T16:49:46.451Z,55.97
2022-09-06T16:52:15.938Z,57.11
2022-09-06T16:54:45.479Z,59.55
2022-09-06T16:57:14.927Z,58.99
2022-09-06T16:59:46.985Z,60.76
2022-09-06T17:02:16.574Z,60.85
2022-09-06T17:04:46.123Z,62.27
2022-09-06T17:07:15.634Z,64.95
2022-09-06T17:09:45.093Z,65.63
2022-09-06T17:12:14.565Z,65.63
2022-09-06T17:14:44.040Z,63.95
2022-09-06T17:17:14.610Z,63.04
2022-09-06T17:19:44.445Z,61.05
2022-09-06T17:22:14.955Z,62.36
2022-09-06T17:24:44.599Z,61.39
2022-09-06T17:27:14.062Z,60.31
2022-09-06T17:29:43.510Z,61.34
2022-09-06T17:32:12.993Z,60.54
2022-09-06T17:34:45.033Z,60.80
2022-09-06T17:37:14.476Z,60.20
2022-09-06T17:39:44.057Z,60.44
2022-09-06T17:42:13.603Z,59.30
2022-09-06T17:44:44.410Z,58.17
2022-09-06T17:47:14.222Z,58.13
2022-09-06T17:49:47.306Z,58.47
2022-09-06T17:52:16.755Z,57.63
2022-09-06T17:54:47.077Z,57.36
2022-09-06T17:57:16.519Z,57.37
2022-09-06T17:59:45.966Z,57.46
2022-09-06T18:02:15.459Z,58.16
2022-09-06T18:04:47.859Z,57.46
2022-09-06T18:07:17.486Z,56.84
2022-09-06T18:09:47.879Z,57.00
2022-09-06T18:12:17.525Z,56.75
2022-09-06T18:14:47.027Z,56.38
2022-09-06T18:17:16.469Z,56.21
2022-09-06T18:19:48.558Z,56.89
2022-09-06T18:22:17.994Z,56.40
2022-09-06T18:24:47.449Z,56.55
2022-09-06T18:27:16.894Z,55.77
2022-09-06T18:29:46.391Z,55.23
2022-09-06T18:32:15.835Z,55.54
2022-09-06T18:34:47.919Z,53.92
2022-09-06T18:37:17.367Z,54.50
2022-09-06T18:39:46.938Z,55.59
2022-09-06T18:42:16.428Z,56.47
2022-09-06T18:44:45.884Z,56.07
2022-09-06T18:47:15.345Z,54.91
2022-09-06T18:49:45.078Z,55.05
2022-09-06T18:52:18.759Z,55.69
2022-09-06T18:54:48.302Z,55.18
2022-09-06T18:57:18.051Z,55.16
2022-09-06T18:59:47.571Z,55.54
2022-09-06T19:02:17.124Z,54.95
2022-09-06T19:04:46.608Z,55.73
2022-09-06T19:07:18.768Z,55.03
2022-09-06T19:09:48.400Z,55.25
2022-09-06T19:12:17.884Z,55.61
2022-09-06T19:14:47.375Z,55.27
2022-09-06T19:17:16.863Z,55.82
2022-09-06T19:19:46.332Z,56.11
2022-09-06T19:22:18.356Z,56.35
2022-09-06T19:24:47.997Z,55.55
2022-09-06T19:27:17.433Z,55.43
2022-09-06T19:29:47.050Z,55.98
2022-09-06T19:32:18.709Z,56.07
2022-09-06T19:34:48.141Z,55.32
2022-09-06T19:37:23.775Z,55.91
2022-09-06T19:39:53.268Z,57.44
2022-09-06T19:42:25.229Z,57.82
2022-09-06T19:44:54.739Z,57.58
2022-09-06T19:47:24.170Z,58.13
2022-09-06T19:49:53.630Z,57.98
2022-09-06T19:52:25.699Z,57.27
2022-09-06T19:54:55.169Z,57.59
2022-09-06T19:57:24.631Z,57.77
2022-09-06T19:59:54.829Z,58.10
2022-09-06T20:02:24.297Z,57.87
2022-09-06T20:04:53.787Z,57.95
2022-09-06T20:07:27.206Z,58.17
2022-09-06T20:09:57.041Z,57.78
2022-09-06T20:12:29.696Z,56.93
2022-09-06T20:14:59.447Z,57.06
2022-09-06T20:17:33.859Z,56.83
2022-09-06T20:20:04.457Z,56.85
2022-09-06T20:22:36.534Z,57.15
2022-09-06T20:25:06.222Z,57.36
2022-09-06T20:27:35.797Z,56.11
2022-09-06T20:30:05.401Z,56.21
2022-09-06T20:32:34.830Z,55.76
2022-09-06T20:35:04.294Z,56.17
2022-09-06T20:37:38.703Z,56.22
2022-09-06T20:40:10.087Z,56.65
2022-09-06T20:42:42.265Z,56.15
2022-09-06T20:45:12.585Z,56.29
2022-09-06T20:47:42.147Z,56.24
2022-09-06T20:50:12.548Z,56.02
2022-09-06T20:52:44.678Z,55.57
2022-09-06T20:55:14.172Z,54.82
2022-09-06T20:57:43.607Z,54.89
2022-09-06T21:00:14.883Z,54.97
2022-09-06T21:02:44.330Z,55.29
2022-09-06T21:05:13.820Z,54.71
2022-09-06T21:07:45.842Z,54.88
2022-09-06T21:10:15.330Z,54.25
2022-09-06T21:12:44.794Z,54.23
2022-09-06T21:15:14.491Z,54.03
2022-09-06T21:17:44.709Z,54.04
2022-09-06T21:20:14.185Z,54.07
2022-09-06T21:22:46.202Z,54.01
2022-09-06T21:25:15.680Z,54.04
2022-09-06T21:27:45.156Z,53.85
2022-09-06T21:30:15.865Z,54.72
2022-09-06T21:32:45.297Z,55.04
2022-09-06T21:35:14.738Z,54.59
2022-09-06T21:37:46.770Z,54.42
2022-09-06T21:40:16.399Z,55.54
2022-09-06T21:42:46.196Z,55.28
2022-09-06T21:45:15.822Z,55.21
2022-09-06T21:47:45.249Z,55.29
2022-09-06T21:50:15.458Z,55.61
2022-09-06T21:52:47.478Z,55.75
2022-09-06T21:55:17.173Z,55.59
2022-09-06T21:57:46.639Z,55.33
2022-09-06T22:00:18.287Z,55.47
2022-09-06T22:02:47.881Z,55.67
2022-09-06T22:05:17.740Z,55.65
2022-09-06T22:07:49.837Z,55.85
2022-09-06T22:10:19.489Z,56.51
2022-09-06T22:12:48.922Z,56.32
2022-09-06T22:15:19.082Z,56.87
2022-09-06T22:17:48.541Z,57.06
2022-09-06T22:20:18.149Z,57.22
2022-09-06T22:22:50.535Z,56.88
2022-09-06T22:25:20.073Z,57.04
2022-09-06T22:27:49.494Z,56.16
2022-09-06T22:30:22.622Z,56.32
2022-09-06T22:32:54.944Z,55.95
2022-09-06T22:35:24.425Z,55.90
2022-09-06T22:37:56.449Z,56.09
2022-09-06T22:40:26.301Z,55.98
2022-09-06T22:42:55.982Z,55.66
2022-09-06T22:45:25.457Z,54.99
2022-09-06T22:47:54.985Z,54.43
2022-09-06T22:50:24.431Z,54.42
2022-09-06T22:52:56.737Z,54.56
2022-09-06T22:55:26.422Z,54.83
2022-09-06T22:57:55.857Z,54.92
2022-09-06T23:00:26.245Z,54.75
2022-09-06T23:02:55.734Z,55.10
2022-09-06T23:05:25.199Z,55.12
2022-09-06T23:07:57.979Z,54.96
2022-09-06T23:10:27.536Z,55.05
2022-09-06T23:12:57.026Z,55.69
2022-09-06T23:15:26.470Z,55.98
2022-09-06T23:17:55.904Z,56.10
2022-09-06T23:20:28.191Z,55.87
2022-09-06T23:23:00.192Z,56.21
2022-09-06T23:25:29.621Z,56.11
2022-09-06T23:28:00.412Z,56.39
2022-09-06T23:30:29.844Z,56.78
2022-09-06T23:32:59.470Z,56.25
2022-09-06T23:35:28.882Z,56.51
2022-09-06T23:38:00.888Z,56.71
2022-09-06T23:40:30.331Z,56.88
2022-09-06T23:42:59.750Z,56.76
2022-09-06T23:45:29.308Z,56.74
2022-09-06T23:47:58.710Z,55.96
2022-09-06T23:50:28.147Z,55.85
2022-09-06T23:53:00.162Z,55.63
2022-09-06T23:55:29.596Z,55.29
2022-09-06T23:57:59.035Z,55.19
